createdAt,value
2018-12-09T00:01:58.851Z,7.40
2018-12-09T00:04:29.941Z,7.33
2018-12-09T00:07:02.923Z,7.31
2018-12-09T00:09:33.823Z,7.22
2018-12-09T00:12:05.487Z,7.15
2018-12-09T00:14:35.929Z,7.06
2018-12-09T00:17:11.812Z,6.84
2018-12-09T00:19:41.784Z,6.88
2018-12-09T00:22:15.607Z,6.79
2018-12-09T00:24:45.884Z,6.70
2018-12-09T00:27:16.926Z,6.64
2018-12-09T00:29:46.923Z,6.58
2018-12-09T00:32:18.009Z,6.56
2018-12-09T00:34:48.916Z,6.53
2018-12-09T00:37:18.967Z,6.46
2018-12-09T00:39:50.009Z,6.48
2018-12-09T00:42:21.266Z,6.48
2018-12-09T00:44:54.066Z,6.44
2018-12-09T00:47:26.930Z,6.39
2018-12-09T00:49:58.019Z,6.36
2018-12-09T00:52:29.079Z,6.31
2018-12-09T00:54:59.940Z,6.26
2018-12-09T00:57:31.055Z,6.25
2018-12-09T01:00:02.011Z,6.25
2018-12-09T01:02:33.100Z,6.24
2018-12-09T01:05:06.234Z,6.29
2018-12-09T01:07:36.272Z,6.29
2018-12-09T01:10:08.314Z,6.25
2018-12-09T01:12:43.988Z,6.26
2018-12-09T01:15:15.154Z,6.25
2018-12-09T01:17:48.150Z,6.25
2018-12-09T01:20:19.048Z,6.16
2018-12-09T01:22:49.212Z,6.04
2018-12-09T01:25:20.243Z,5.92
2018-12-09T01:27:50.731Z,5.83
2018-12-09T01:30:21.283Z,5.76
2018-12-09T01:32:51.399Z,5.61
2018-12-09T01:35:24.300Z,5.48
2018-12-09T01:37:55.238Z,5.42
2018-12-09T01:40:25.290Z,5.39
2018-12-09T01:42:56.434Z,5.36
2018-12-09T01:45:27.356Z,5.28
2018-12-09T01:48:01.032Z,5.22
2018-12-09T01:50:32.251Z,5.18
2018-12-09T01:54:12.395Z,5.14
2018-12-09T01:56:42.569Z,5.12
2018-12-09T01:59:21.267Z,5.09
2018-12-09T02:01:52.678Z,5.16
2018-12-09T02:04:23.362Z,5.23
2018-12-09T02:06:53.979Z,5.27
2018-12-09T02:09:23.956Z,5.33
2018-12-09T02:11:54.371Z,5.46
2018-12-09T02:14:26.813Z,5.56
2018-12-09T02:16:59.714Z,5.65
2018-12-09T02:19:30.555Z,5.74
2018-12-09T02:22:01.171Z,5.78
2018-12-09T02:24:31.563Z,5.81
2018-12-09T02:27:02.158Z,5.91
2018-12-09T02:29:32.559Z,5.93
2018-12-09T02:32:03.156Z,5.93
2018-12-09T02:34:33.497Z,5.97
2018-12-09T02:37:04.327Z,5.96
2018-12-09T02:39:34.655Z,5.99
2018-12-09T02:42:05.507Z,6.00
2018-12-09T02:44:35.480Z,6.23
2018-12-09T02:47:06.599Z,6.35
2018-12-09T02:49:36.723Z,6.37
2018-12-09T02:52:07.736Z,6.34
2018-12-09T02:54:38.742Z,6.33
2018-12-09T02:57:09.439Z,6.28
2018-12-09T02:59:39.563Z,6.25
2018-12-09T03:02:10.663Z,6.24
2018-12-09T03:04:41.459Z,6.31
2018-12-09T03:07:12.084Z,6.33
2018-12-09T03:09:42.755Z,6.33
2018-12-09T03:12:13.739Z,6.29
2018-12-09T03:14:44.726Z,6.31
2018-12-09T03:17:15.666Z,6.33
2018-12-09T03:19:48.400Z,6.39
2018-12-09T03:22:19.594Z,6.41
2018-12-09T03:24:53.507Z,6.39
2018-12-09T03:27:23.823Z,6.36
2018-12-09T03:29:54.680Z,6.36
2018-12-09T03:32:25.729Z,6.36
2018-12-09T03:34:55.952Z,6.37
2018-12-09T03:37:26.682Z,6.38
2018-12-09T03:39:57.705Z,6.37
2018-12-09T03:42:27.857Z,6.36
2018-12-09T03:44:58.786Z,6.36
2018-12-09T03:47:32.244Z,6.34
2018-12-09T03:50:02.905Z,6.39
2018-12-09T03:52:33.862Z,6.39
2018-12-09T03:55:06.701Z,6.36
2018-12-09T03:57:36.687Z,6.44
2018-12-09T04:00:09.342Z,6.40
2018-12-09T04:02:39.915Z,6.35
2018-12-09T04:05:12.969Z,6.33
2018-12-09T04:07:43.177Z,6.33
2018-12-09T04:10:14.638Z,6.30
2018-12-09T04:12:44.877Z,6.27
2018-12-09T04:15:15.999Z,6.24
2018-12-09T04:17:46.825Z,6.22
2018-12-09T04:20:20.664Z,6.19
2018-12-09T04:22:50.959Z,6.16
2018-12-09T04:25:22.229Z,6.13
2018-12-09T04:27:53.070Z,6.10
2018-12-09T04:30:23.986Z,6.08
2018-12-09T04:32:53.994Z,6.05
2018-12-09T04:35:24.956Z,6.03
2018-12-09T04:37:56.092Z,6.02
2018-12-09T04:40:26.119Z,6.02
2018-12-09T04:42:57.402Z,6.00
2018-12-09T04:45:28.055Z,5.94
2018-12-09T04:47:58.027Z,5.90
2018-12-09T04:50:29.152Z,5.89
2018-12-09T04:53:00.188Z,5.90
2018-12-09T04:55:33.293Z,5.88
2018-12-09T04:58:04.116Z,5.85
2018-12-09T05:00:46.494Z,5.83
2018-12-09T05:03:25.952Z,5.83
2018-12-09T05:05:56.151Z,5.86
2018-12-09T05:08:28.296Z,5.91
2018-12-09T05:10:59.742Z,6.05
2018-12-09T05:13:30.276Z,6.12
2018-12-09T05:16:00.812Z,6.15
2018-12-09T05:18:33.196Z,6.27
2018-12-09T05:21:05.489Z,6.40
2018-12-09T05:23:36.150Z,6.45
2018-12-09T05:26:07.148Z,6.56
2018-12-09T05:28:38.205Z,6.64
2018-12-09T05:31:09.256Z,6.67
2018-12-09T05:33:39.215Z,6.76
2018-12-09T05:36:10.107Z,6.92
2018-12-09T05:38:40.807Z,6.97
2018-12-09T05:41:12.178Z,6.87
2018-12-09T05:43:42.159Z,7.15
2018-12-09T05:46:12.451Z,7.37
2018-12-09T05:48:42.440Z,7.63
2018-12-09T05:51:14.101Z,7.68
2018-12-09T05:53:44.811Z,7.82
2018-12-09T05:56:15.344Z,8.17
2018-12-09T05:58:45.402Z,8.35
2018-12-09T06:01:16.467Z,8.43
2018-12-09T06:03:47.454Z,8.60
2018-12-09T06:06:18.104Z,8.81
2018-12-09T06:08:48.409Z,8.84
2018-12-09T06:11:19.371Z,8.75
2018-12-09T06:13:50.387Z,8.57
2018-12-09T06:16:21.397Z,8.48
2018-12-09T06:18:52.258Z,8.42
2018-12-09T06:21:22.569Z,8.34
2018-12-09T06:23:53.452Z,8.19
2018-12-09T06:26:24.545Z,8.14
2018-12-09T06:28:55.660Z,8.03
2018-12-09T06:31:26.115Z,8.00
2018-12-09T06:33:56.543Z,8.08
2018-12-09T06:36:30.358Z,8.04
2018-12-09T06:39:06.060Z,8.02
2018-12-09T06:41:36.348Z,7.88
2018-12-09T06:44:07.979Z,7.83
2018-12-09T06:46:39.547Z,7.88
2018-12-09T06:49:09.676Z,7.92
2018-12-09T06:51:39.646Z,8.03
2018-12-09T06:54:13.819Z,8.03
2018-12-09T06:56:50.489Z,8.05
2018-12-09T06:59:21.079Z,8.00
2018-12-09T07:01:51.634Z,8.11
2018-12-09T07:04:22.711Z,7.95
2018-12-09T07:06:53.677Z,7.87
2018-12-09T07:09:23.848Z,7.80
2018-12-09T07:11:54.762Z,7.79
2018-12-09T07:14:28.575Z,7.73
2018-12-09T07:16:59.670Z,7.82
2018-12-09T07:19:29.701Z,7.69
2018-12-09T07:22:00.856Z,7.71
2018-12-09T07:24:31.723Z,7.58
2018-12-09T07:27:02.828Z,7.64
2018-12-09T07:29:35.130Z,7.50
2018-12-09T07:32:07.777Z,7.50
2018-12-09T07:34:40.232Z,7.45
2018-12-09T07:37:11.931Z,7.39
2018-12-09T07:39:44.283Z,7.40
2018-12-09T07:42:15.076Z,7.36
2018-12-09T07:44:46.767Z,7.44
2018-12-09T07:47:16.941Z,7.42
2018-12-09T07:49:48.037Z,7.57
2018-12-09T07:52:18.777Z,7.57
2018-12-09T07:54:49.161Z,7.66
2018-12-09T07:57:20.106Z,7.67
2018-12-09T07:59:50.949Z,7.74
2018-12-09T08:02:20.915Z,7.80
2018-12-09T08:04:52.158Z,7.93
2018-12-09T08:07:23.112Z,7.89
2018-12-09T08:09:53.833Z,7.89
2018-12-09T08:12:24.028Z,7.87
2018-12-09T08:14:55.091Z,7.83
2018-12-09T08:17:26.129Z,7.93
2018-12-09T08:19:57.015Z,8.04
2018-12-09T08:22:30.796Z,8.07
2018-12-09T08:25:02.743Z,8.09
2018-12-09T08:27:35.437Z,8.20
2018-12-09T08:30:13.376Z,8.34
2018-12-09T08:32:46.290Z,8.28
2018-12-09T08:35:17.174Z,8.39
2018-12-09T08:37:51.476Z,8.43
2018-12-09T08:40:27.148Z,8.47
2018-12-09T08:42:58.150Z,8.41
2018-12-09T08:45:30.207Z,8.41
2018-12-09T08:48:02.094Z,8.34
2018-12-09T08:50:34.270Z,8.30
2018-12-09T08:53:06.306Z,8.25
2018-12-09T08:55:36.700Z,8.27
2018-12-09T08:58:08.560Z,8.26
2018-12-09T09:00:38.901Z,8.35
2018-12-09T09:03:09.304Z,8.39
2018-12-09T09:05:40.034Z,8.42
2018-12-09T09:08:10.399Z,8.31
2018-12-09T09:10:40.429Z,8.24
2018-12-09T09:13:13.106Z,8.10
2018-12-09T09:15:43.134Z,8.02
2018-12-09T09:18:13.450Z,7.94
2018-12-09T09:20:43.427Z,7.92
2018-12-09T09:23:15.197Z,7.91
2018-12-09T09:25:46.041Z,7.88
2018-12-09T09:28:16.809Z,7.85
2018-12-09T09:30:47.960Z,8.00
2018-12-09T09:33:18.293Z,7.95
2018-12-09T09:35:48.829Z,7.83
2018-12-09T09:38:19.312Z,7.81
2018-12-09T09:40:49.583Z,7.68
2018-12-09T09:43:20.533Z,7.61
2018-12-09T09:45:51.307Z,7.68
2018-12-09T09:48:21.460Z,7.68
2018-12-09T09:50:51.714Z,7.67
2018-12-09T09:53:23.701Z,7.77
2018-12-09T09:55:54.160Z,7.78
2018-12-09T09:58:24.458Z,7.88
2018-12-09T10:00:55.411Z,7.99
2018-12-09T10:03:26.063Z,8.05
2018-12-09T10:05:56.960Z,8.22
2018-12-09T10:08:27.617Z,8.28
2018-12-09T10:10:58.267Z,8.26
2018-12-09T10:13:28.870Z,8.36
2018-12-09T10:15:59.768Z,8.48
2018-12-09T10:18:34.500Z,8.51
2018-12-09T10:21:04.646Z,8.66
2018-12-09T10:23:34.630Z,8.65
2018-12-09T10:26:05.439Z,8.74
2018-12-09T10:28:36.664Z,8.88
2018-12-09T10:31:08.102Z,8.93
2018-12-09T10:33:39.600Z,8.96
2018-12-09T10:36:09.713Z,8.81
2018-12-09T10:38:41.555Z,8.88
2018-12-09T10:41:13.862Z,8.86
2018-12-09T10:43:46.790Z,8.83
2018-12-09T10:46:17.757Z,8.77
2018-12-09T10:48:48.600Z,8.73
2018-12-09T10:51:19.618Z,8.65
2018-12-09T10:53:49.743Z,8.52
2018-12-09T10:56:20.960Z,8.49
2018-12-09T10:58:51.810Z,8.44
2018-12-09T11:01:32.115Z,8.34
2018-12-09T11:04:04.265Z,8.27
2018-12-09T11:06:35.274Z,8.28
2018-12-09T11:09:07.448Z,8.32
2018-12-09T11:11:37.456Z,8.36
2018-12-09T11:14:07.902Z,8.13
2018-12-09T11:16:42.968Z,7.99
2018-12-09T11:19:15.027Z,8.10
2018-12-09T11:21:48.912Z,8.13
2018-12-09T11:24:19.923Z,8.22
2018-12-09T11:26:56.867Z,8.23
2018-12-09T11:29:27.918Z,8.32
2018-12-09T11:31:58.100Z,8.34
2018-12-09T11:34:28.815Z,8.37
2018-12-09T11:36:59.990Z,8.38
2018-12-09T11:39:30.008Z,8.49
2018-12-09T11:42:00.982Z,8.52
2018-12-09T11:44:32.146Z,8.49
2018-12-09T11:47:08.068Z,8.39
2018-12-09T11:49:40.538Z,8.35
2018-12-09T11:52:12.669Z,8.34
2018-12-09T11:54:43.483Z,8.24
2018-12-09T11:57:14.508Z,8.10
2018-12-09T11:59:48.908Z,8.19
2018-12-09T12:02:21.606Z,8.04
2018-12-09T12:04:52.156Z,7.99
2018-12-09T12:07:23.027Z,7.99
2018-12-09T12:09:53.072Z,8.03
2018-12-09T12:12:24.192Z,8.07
2018-12-09T12:14:55.087Z,8.04
2018-12-09T12:17:26.251Z,8.09
2018-12-09T12:19:56.220Z,8.02
2018-12-09T12:22:27.124Z,8.12
2018-12-09T12:24:58.172Z,8.09
2018-12-09T12:27:29.896Z,8.19
2018-12-09T12:30:00.217Z,8.07
2018-12-09T12:32:31.119Z,8.01
2018-12-09T12:35:02.712Z,8.08
2018-12-09T12:37:35.723Z,8.02
2018-12-09T12:40:06.670Z,8.11
2018-12-09T12:42:36.874Z,8.10
2018-12-09T12:45:07.683Z,8.09
2018-12-09T12:47:40.372Z,8.14
2018-12-09T12:50:18.185Z,8.06
2018-12-09T12:52:48.826Z,8.12
2018-12-09T12:55:19.291Z,8.10
2018-12-09T12:57:50.230Z,8.20
2018-12-09T13:00:20.585Z,8.13
2018-12-09T13:02:52.799Z,8.03
2018-12-09T13:05:25.609Z,8.01
2018-12-09T13:07:55.860Z,8.04
2018-12-09T13:10:26.519Z,8.00
2018-12-09T13:12:57.350Z,7.95
2018-12-09T13:15:28.388Z,7.85
2018-12-09T13:17:59.412Z,7.84
2018-12-09T13:20:30.544Z,7.84
2018-12-09T13:23:01.587Z,7.79
2018-12-09T13:25:32.477Z,7.81
2018-12-09T13:28:02.482Z,7.87
2018-12-09T13:30:33.381Z,7.86
2018-12-09T13:33:04.824Z,7.85
2018-12-09T13:35:35.679Z,7.96
2018-12-09T13:38:07.595Z,7.97
2018-12-09T13:40:37.649Z,8.12
2018-12-09T13:43:07.928Z,8.16
2018-12-09T13:45:40.804Z,8.20
2018-12-09T13:48:11.779Z,8.24
2018-12-09T13:50:44.865Z,8.28
2018-12-09T13:53:15.925Z,8.32
2018-12-09T13:55:46.514Z,8.18
2018-12-09T13:58:18.165Z,8.09
2018-12-09T14:00:51.589Z,8.08
2018-12-09T14:03:24.403Z,8.04
2018-12-09T14:05:55.562Z,8.01
2018-12-09T14:08:26.576Z,8.08
2018-12-09T14:10:56.575Z,8.00
2018-12-09T14:13:28.039Z,7.99
2018-12-09T14:15:58.842Z,8.02
2018-12-09T14:18:29.733Z,8.02
2018-12-09T14:21:00.963Z,8.14
2018-12-09T14:23:33.810Z,8.35
2018-12-09T14:26:08.615Z,8.31
2018-12-09T14:28:40.816Z,8.39
2018-12-09T14:31:13.464Z,8.38
2018-12-09T14:33:44.228Z,8.26
2018-12-09T14:36:16.742Z,8.20
2018-12-09T14:38:47.860Z,8.18
2018-12-09T14:41:18.666Z,8.28
2018-12-09T14:43:49.189Z,8.31
2018-12-09T14:46:19.961Z,8.35
2018-12-09T14:48:53.876Z,8.41
2018-12-09T14:51:24.065Z,8.39
2018-12-09T14:53:55.197Z,8.32
2018-12-09T14:56:26.064Z,8.23
2018-12-09T14:58:59.061Z,8.33
2018-12-09T15:01:32.880Z,8.38
2018-12-09T15:04:03.983Z,8.18
2018-12-09T15:06:34.952Z,8.08
2018-12-09T15:09:07.008Z,8.15
2018-12-09T15:11:37.597Z,8.24
2018-12-09T15:14:09.953Z,8.14
2018-12-09T15:16:40.160Z,8.14
2018-12-09T15:19:11.923Z,8.14
2018-12-09T15:21:43.112Z,8.06
2018-12-09T15:24:19.824Z,7.99
2018-12-09T15:26:50.600Z,7.86
2018-12-09T15:29:20.980Z,7.69
2018-12-09T15:31:52.415Z,7.56
2018-12-09T15:34:25.133Z,7.39
2018-12-09T15:36:56.203Z,7.19
2018-12-09T15:39:26.224Z,6.97
2018-12-09T15:41:57.074Z,6.89
2018-12-09T15:44:27.938Z,6.82
2018-12-09T15:46:58.219Z,6.80
2018-12-09T15:49:29.122Z,6.73
2018-12-09T15:51:59.284Z,6.63
2018-12-09T15:54:31.067Z,6.65
2018-12-09T15:57:03.328Z,6.62
2018-12-09T15:59:34.291Z,6.62
2018-12-09T16:02:05.625Z,6.57
2018-12-09T16:04:36.942Z,6.57
2018-12-09T16:07:09.505Z,6.64
2018-12-09T16:09:40.339Z,6.57
2018-12-09T16:12:14.208Z,6.46
2018-12-09T16:14:44.337Z,6.48
2018-12-09T16:17:15.315Z,6.49
2018-12-09T16:19:45.823Z,6.52
2018-12-09T16:22:16.619Z,6.55
2018-12-09T16:24:47.475Z,6.62
2018-12-09T16:27:24.095Z,6.47
2018-12-09T16:29:55.342Z,6.41
2018-12-09T16:32:25.466Z,6.42
2018-12-09T16:34:56.348Z,6.47
2018-12-09T16:37:27.385Z,6.48
2018-12-09T16:40:01.131Z,6.45
2018-12-09T16:42:31.370Z,6.44
2018-12-09T16:45:02.484Z,6.40
2018-12-09T16:47:32.574Z,6.54
2018-12-09T16:50:03.544Z,6.67
2018-12-09T16:52:34.347Z,6.67
2018-12-09T16:55:04.804Z,6.77
2018-12-09T16:57:37.102Z,6.84
2018-12-09T17:00:09.635Z,6.74
2018-12-09T17:02:40.460Z,6.75
2018-12-09T17:05:13.414Z,6.67
2018-12-09T17:07:44.253Z,6.69
2018-12-09T17:10:14.564Z,6.69
2018-12-09T17:12:46.930Z,6.81
2018-12-09T17:15:16.936Z,6.81
2018-12-09T17:17:47.472Z,6.96
2018-12-09T17:20:18.327Z,6.86
2018-12-09T17:22:49.473Z,6.97
2018-12-09T17:25:19.506Z,7.08
2018-12-09T17:27:49.504Z,6.95
2018-12-09T17:30:21.587Z,6.99
2018-12-09T17:32:52.604Z,6.92
2018-12-09T17:35:22.687Z,7.00
2018-12-09T17:37:53.621Z,6.96
2018-12-09T17:40:24.822Z,6.96
2018-12-09T17:42:55.539Z,6.97
2018-12-09T17:45:28.623Z,7.05
2018-12-09T17:47:59.582Z,7.05
2018-12-09T17:50:33.609Z,7.02
2018-12-09T17:53:05.898Z,7.01
2018-12-09T17:55:37.119Z,7.00
2018-12-09T17:58:09.802Z,6.96
2018-12-09T18:00:40.786Z,7.01
2018-12-09T18:03:15.663Z,6.98
2018-12-09T18:05:46.711Z,7.08
2018-12-09T18:08:17.403Z,6.99
2018-12-09T18:10:48.866Z,7.01
2018-12-09T18:13:18.856Z,6.92
2018-12-09T18:15:53.803Z,6.84
2018-12-09T18:18:25.960Z,6.95
2018-12-09T18:20:57.361Z,6.97
2018-12-09T18:23:27.869Z,6.82
2018-12-09T18:25:58.943Z,6.95
2018-12-09T18:28:35.618Z,7.01
2018-12-09T18:31:08.297Z,6.90
2018-12-09T18:33:41.094Z,6.90
2018-12-09T18:36:11.920Z,6.91
2018-12-09T18:38:42.093Z,7.00
2018-12-09T18:41:12.674Z,7.08
2018-12-09T18:43:43.284Z,7.03
2018-12-09T18:46:13.936Z,7.02
2018-12-09T18:48:43.946Z,7.14
2018-12-09T18:51:15.006Z,7.25
2018-12-09T18:53:45.864Z,7.23
2018-12-09T18:56:15.871Z,7.17
2018-12-09T18:58:47.097Z,7.28
2018-12-09T19:01:20.736Z,7.43
2018-12-09T19:03:51.967Z,7.47
2018-12-09T19:06:22.058Z,7.43
2018-12-09T19:08:56.432Z,7.42
2018-12-09T19:11:27.320Z,7.39
2018-12-09T19:13:58.130Z,7.28
2018-12-09T19:16:28.118Z,7.18
2018-12-09T19:18:59.271Z,7.29
2018-12-09T19:21:30.086Z,7.28
2018-12-09T19:24:00.080Z,7.36
2018-12-09T19:26:31.535Z,7.31
2018-12-09T19:29:03.872Z,7.36
2018-12-09T19:31:36.211Z,7.28
2018-12-09T19:34:07.074Z,7.17
2018-12-09T19:36:37.150Z,7.29
2018-12-09T19:39:14.106Z,7.22
2018-12-09T19:41:48.115Z,7.24
2018-12-09T19:44:18.314Z,7.18
2018-12-09T19:46:49.076Z,7.30
2018-12-09T19:49:20.190Z,7.31
2018-12-09T19:51:50.209Z,7.37
2018-12-09T19:54:21.366Z,7.31
2018-12-09T19:56:52.191Z,7.33
2018-12-09T19:59:22.416Z,7.25
2018-12-09T20:01:59.124Z,7.19
2018-12-09T20:04:30.185Z,7.38
2018-12-09T20:07:01.266Z,7.36
2018-12-09T20:09:31.325Z,7.34
2018-12-09T20:12:01.431Z,7.31
2018-12-09T20:14:33.190Z,7.29
2018-12-09T20:17:04.461Z,7.29
2018-12-09T20:19:34.519Z,7.29
2018-12-09T20:22:11.098Z,7.18
2018-12-09T20:24:42.351Z,7.18
2018-12-09T20:27:13.288Z,7.20
2018-12-09T20:29:43.342Z,7.25
2018-12-09T20:32:13.354Z,7.31
2018-12-09T20:34:43.387Z,7.30
2018-12-09T20:37:19.317Z,7.27
2018-12-09T20:39:50.537Z,7.30
2018-12-09T20:42:20.509Z,7.35
2018-12-09T20:44:51.412Z,7.32
2018-12-09T20:47:23.252Z,7.26
2018-12-09T20:49:55.478Z,7.18
2018-12-09T20:52:26.504Z,7.17
2018-12-09T20:54:57.416Z,7.12
2018-12-09T20:57:27.748Z,7.11
2018-12-09T20:59:58.513Z,7.18
2018-12-09T21:02:29.460Z,7.16
2018-12-09T21:04:59.639Z,7.17
2018-12-09T21:07:30.546Z,7.14
2018-12-09T21:10:01.522Z,7.10
2018-12-09T21:12:32.803Z,7.18
2018-12-09T21:15:03.050Z,7.11
2018-12-09T21:17:33.672Z,7.17
2018-12-09T21:20:08.532Z,7.12
2018-12-09T21:22:40.674Z,7.15
2018-12-09T21:25:13.641Z,7.17
2018-12-09T21:27:43.656Z,7.11
2018-12-09T21:30:14.806Z,7.12
2018-12-09T21:32:51.547Z,7.06
2018-12-09T21:35:21.582Z,7.11
2018-12-09T21:37:52.606Z,7.11
2018-12-09T21:40:22.623Z,7.18
2018-12-09T21:42:53.996Z,7.18
2018-12-09T21:45:24.753Z,7.33
2018-12-09T21:47:54.772Z,7.39
2018-12-09T21:50:25.804Z,7.36
2018-12-09T21:52:55.849Z,7.26
2018-12-09T21:55:29.627Z,7.30
2018-12-09T21:58:00.817Z,7.37
2018-12-09T22:00:31.764Z,7.37
2018-12-09T22:03:02.800Z,7.30
2018-12-09T22:05:32.810Z,7.28
2018-12-09T22:08:03.677Z,7.27
2018-12-09T22:10:33.783Z,7.41
2018-12-09T22:13:05.058Z,7.45
2018-12-09T22:15:40.759Z,7.45
2018-12-09T22:18:12.860Z,7.45
2018-12-09T22:20:43.797Z,7.37
2018-12-09T22:23:14.706Z,7.33
2018-12-09T22:25:46.811Z,7.63
2018-12-09T22:28:18.780Z,7.58
2018-12-09T22:30:48.900Z,7.63
2018-12-09T22:33:20.882Z,7.54
2018-12-09T22:35:51.807Z,7.42
2018-12-09T22:38:23.334Z,7.32
2018-12-09T22:40:55.961Z,7.20
2018-12-09T22:43:28.891Z,7.17
2018-12-09T22:46:00.880Z,7.18
2018-12-09T22:48:33.149Z,7.20
2018-12-09T22:51:05.078Z,7.22
2018-12-09T22:53:37.712Z,7.22
2018-12-09T22:56:08.061Z,7.33
2018-12-09T22:58:38.142Z,7.33
2018-12-09T23:01:14.323Z,7.34
2018-12-09T23:03:52.316Z,7.38
2018-12-09T23:06:23.252Z,7.33
2018-12-09T23:08:56.280Z,7.38
2018-12-09T23:11:29.205Z,7.45
2018-12-09T23:14:00.034Z,7.49
2018-12-09T23:16:30.797Z,7.50
2018-12-09T23:19:01.118Z,7.39
2018-12-09T23:21:32.196Z,7.44
2018-12-09T23:24:02.779Z,7.46
2018-12-09T23:26:33.432Z,7.46
2018-12-09T23:29:04.212Z,7.25
2018-12-09T23:31:34.550Z,7.17
2018-12-09T23:34:05.217Z,7.05
2018-12-09T23:36:36.350Z,7.22
2018-12-09T23:39:07.466Z,7.13
2018-12-09T23:41:37.479Z,7.08
2018-12-09T23:44:08.608Z,7.09
2018-12-09T23:46:39.890Z,7.01
2018-12-09T23:49:10.181Z,6.93
2018-12-09T23:51:40.327Z,6.94
2018-12-09T23:54:10.444Z,6.89
2018-12-09T23:56:47.207Z,6.81
2018-12-09T23:59:17.353Z,6.82
